sensor_id;sensor_type;location;lat;lon;timestamp;pressure;altitude;pressure_sealevel;temperature;humidity
1832;BME280;1680;48.106;11.708;2023-03-14T00:01:26;94079.91;;;10.83;99.75
1832;BME280;1680;48.106;11.708;2023-03-14T00:03:54;94087.22;;;10.81;99.25
1832;BME280;1680;48.106;11.708;2023-03-14T00:06:21;94097.13;;;10.64;99.85
1832;BME280;1680;48.106;11.708;2023-03-14T00:08:49;94094.81;;;10.72;99.06
1832;BME280;1680;48.106;11.708;2023-03-14T00:11:19;94084.53;;;10.61;99.48
1832;BME280;1680;48.106;11.708;2023-03-14T00:13:47;94060.69;;;10.58;99.65
1832;BME280;1680;48.106;11.708;2023-03-14T00:16:14;94069.59;;;10.66;99.44
1832;BME280;1680;48.106;11.708;2023-03-14T00:18:43;94080.94;;;10.82;98.01
1832;BME280;1680;48.106;11.708;2023-03-14T00:21:11;94077.19;;;10.53;99.76
1832;BME280;1680;48.106;11.708;2023-03-14T00:23:41;94039.34;;;10.24;100.00
1832;BME280;1680;48.106;11.708;2023-03-14T00:26:10;94055.13;;;10.44;100.00
1832;BME280;1680;48.106;11.708;2023-03-14T00:28:38;94047.78;;;10.36;100.00
1832;BME280;1680;48.106;11.708;2023-03-14T00:31:07;94044.63;;;10.39;100.00
1832;BME280;1680;48.106;11.708;2023-03-14T00:33:35;94029.91;;;10.28;100.00
1832;BME280;1680;48.106;11.708;2023-03-14T00:36:05;94065.06;;;10.37;100.00
1832;BME280;1680;48.106;11.708;2023-03-14T00:38:35;94060.84;;;10.31;100.00
1832;BME280;1680;48.106;11.708;2023-03-14T00:41:03;94058.50;;;10.30;100.00
1832;BME280;1680;48.106;11.708;2023-03-14T00:43:30;94061.38;;;10.33;100.00
1832;BME280;1680;48.106;11.708;2023-03-14T00:45:57;94062.41;;;10.32;100.00
1832;BME280;1680;48.106;11.708;2023-03-14T00:48:25;94070.25;;;10.22;100.00
1832;BME280;1680;48.106;11.708;2023-03-14T00:50:52;94079.72;;;10.33;100.00
1832;BME280;1680;48.106;11.708;2023-03-14T00:53:21;94075.78;;;10.31;100.00
1832;BME280;1680;48.106;11.708;2023-03-14T00:55:49;94068.69;;;10.31;100.00
1832;BME280;1680;48.106;11.708;2023-03-14T00:58:17;94014.56;;;9.95;100.00
1832;BME280;1680;48.106;11.708;2023-03-14T01:00:45;94064.25;;;10.37;100.00
1832;BME280;1680;48.106;11.708;2023-03-14T01:03:14;94075.31;;;10.44;100.00
1832;BME280;1680;48.106;11.708;2023-03-14T01:05:41;94079.81;;;10.53;100.00
1832;BME280;1680;48.106;11.708;2023-03-14T01:08:08;94099.16;;;10.47;100.00
1832;BME280;1680;48.106;11.708;2023-03-14T01:10:39;94099.72;;;10.59;100.00
1832;BME280;1680;48.106;11.708;2023-03-14T01:13:06;94102.34;;;10.59;100.00
1832;BME280;1680;48.106;11.708;2023-03-14T01:15:34;94103.41;;;10.63;100.00
1832;BME280;1680;48.106;11.708;2023-03-14T01:18:02;94109.75;;;10.67;100.00
1832;BME280;1680;48.106;11.708;2023-03-14T01:20:30;94107.13;;;10.77;100.00
1832;BME280;1680;48.106;11.708;2023-03-14T01:22:57;94114.97;;;10.72;100.00
1832;BME280;1680;48.106;11.708;2023-03-14T01:25:25;94101.31;;;10.60;100.00
1832;BME280;1680;48.106;11.708;2023-03-14T01:27:53;94106.03;;;10.63;100.00
1832;BME280;1680;48.106;11.708;2023-03-14T01:30:21;94111.78;;;10.60;100.00
1832;BME280;1680;48.106;11.708;2023-03-14T01:32:48;94108.63;;;10.58;100.00
1832;BME280;1680;48.106;11.708;2023-03-14T01:35:15;94108.13;;;10.61;100.00
1832;BME280;1680;48.106;11.708;2023-03-14T01:37:43;94105.22;;;10.53;100.00
1832;BME280;1680;48.106;11.708;2023-03-14T01:40:11;94111.78;;;10.55;100.00
1832;BME280;1680;48.106;11.708;2023-03-14T01:42:45;94108.84;;;10.42;100.00
1832;BME280;1680;48.106;11.708;2023-03-14T01:48:20;94110.44;;;10.53;100.00
1832;BME280;1680;48.106;11.708;2023-03-14T01:50:47;94103.06;;;10.40;100.00
1832;BME280;1680;48.106;11.708;2023-03-14T01:53:15;94106.81;;;10.59;100.00
1832;BME280;1680;48.106;11.708;2023-03-14T01:55:46;94095.78;;;10.52;100.00
1832;BME280;1680;48.106;11.708;2023-03-14T01:58:14;94095.41;;;10.28;100.00
1832;BME280;1680;48.106;11.708;2023-03-14T02:00:45;94097.34;;;10.53;100.00
1832;BME280;1680;48.106;11.708;2023-03-14T02:03:16;94103.09;;;10.50;100.00
1832;BME280;1680;48.106;11.708;2023-03-14T02:05:45;94111.78;;;10.55;100.00
1832;BME280;1680;48.106;11.708;2023-03-14T02:08:14;94118.34;;;10.58;100.00
1832;BME280;1680;48.106;11.708;2023-03-14T02:10:45;94113.38;;;10.61;100.00
1832;BME280;1680;48.106;11.708;2023-03-14T02:13:14;94124.66;;;10.66;100.00
1832;BME280;1680;48.106;11.708;2023-03-14T02:15:41;94124.34;;;10.48;100.00
1832;BME280;1680;48.106;11.708;2023-03-14T02:18:10;94121.63;;;10.33;100.00
1832;BME280;1680;48.106;11.708;2023-03-14T02:20:44;94121.44;;;10.45;100.00
1832;BME280;1680;48.106;11.708;2023-03-14T02:23:16;94109.69;;;10.06;100.00
1832;BME280;1680;48.106;11.708;2023-03-14T02:25:48;94121.41;;;9.98;100.00
1832;BME280;1680;48.106;11.708;2023-03-14T02:28:20;94123.06;;;10.04;100.00
1832;BME280;1680;48.106;11.708;2023-03-14T02:30:48;94113.06;;;10.01;100.00
1832;BME280;1680;48.106;11.708;2023-03-14T02:33:17;94109.84;;;9.89;100.00
1832;BME280;1680;48.106;11.708;2023-03-14T02:35:48;94104.88;;;9.93;100.00
1832;BME280;1680;48.106;11.708;2023-03-14T02:38:19;94095.38;;;9.82;100.00
1832;BME280;1680;48.106;11.708;2023-03-14T02:40:49;94082.47;;;9.65;100.00
1832;BME280;1680;48.106;11.708;2023-03-14T02:43:16;94056.25;;;9.61;100.00
1832;BME280;1680;48.106;11.708;2023-03-14T02:45:46;94042.09;;;9.57;100.00
1832;BME280;1680;48.106;11.708;2023-03-14T02:48:16;94035.53;;;9.54;100.00
1832;BME280;1680;48.106;11.708;2023-03-14T02:50:46;94027.19;;;9.57;100.00
1832;BME280;1680;48.106;11.708;2023-03-14T02:53:17;94008.78;;;9.42;100.00
1832;BME280;1680;48.106;11.708;2023-03-14T02:55:46;93981.03;;;9.41;100.00
1832;BME280;1680;48.106;11.708;2023-03-14T02:58:14;93953.53;;;9.34;100.00
1832;BME280;1680;48.106;11.708;2023-03-14T03:00:41;93981.34;;;9.50;100.00
1832;BME280;1680;48.106;11.708;2023-03-14T03:03:10;93992.09;;;9.53;100.00
1832;BME280;1680;48.106;11.708;2023-03-14T03:05:37;93987.66;;;9.59;100.00
1832;BME280;1680;48.106;11.708;2023-03-14T03:08:05;93980.81;;;9.53;100.00
1832;BME280;1680;48.106;11.708;2023-03-14T03:10:32;93985.44;;;9.36;100.00
1832;BME280;1680;48.106;11.708;2023-03-14T03:12:59;93979.69;;;9.34;100.00
1832;BME280;1680;48.106;11.708;2023-03-14T03:15:27;93981.75;;;9.32;100.00
1832;BME280;1680;48.106;11.708;2023-03-14T03:17:54;93952.50;;;9.40;100.00
1832;BME280;1680;48.106;11.708;2023-03-14T03:20:23;93950.81;;;9.24;100.00
1832;BME280;1680;48.106;11.708;2023-03-14T03:22:50;93954.84;;;9.36;100.00
1832;BME280;1680;48.106;11.708;2023-03-14T03:25:17;93958.16;;;9.27;100.00
1832;BME280;1680;48.106;11.708;2023-03-14T03:27:45;93947.44;;;9.23;100.00
1832;BME280;1680;48.106;11.708;2023-03-14T03:30:12;93955.00;;;9.25;100.00
1832;BME280;1680;48.106;11.708;2023-03-14T03:32:40;93955.00;;;9.25;100.00
1832;BME280;1680;48.106;11.708;2023-03-14T03:35:09;93946.72;;;9.38;100.00
1832;BME280;1680;48.106;11.708;2023-03-14T03:37:38;93942.53;;;9.37;100.00
1832;BME280;1680;48.106;11.708;2023-03-14T03:40:06;93956.69;;;9.36;100.00
1832;BME280;1680;48.106;11.708;2023-03-14T03:42:34;93954.06;;;9.36;100.00
1832;BME280;1680;48.106;11.708;2023-03-14T03:45:03;93945.13;;;9.32;100.00
1832;BME280;1680;48.106;11.708;2023-03-14T03:47:31;93952.72;;;9.33;100.00
1832;BME280;1680;48.106;11.708;2023-03-14T03:49:58;93948.28;;;9.34;100.00
1832;BME280;1680;48.106;11.708;2023-03-14T03:52:25;93953.44;;;9.24;100.00
1832;BME280;1680;48.106;11.708;2023-03-14T03:54:54;93946.66;;;9.28;100.00
1832;BME280;1680;48.106;11.708;2023-03-14T03:57:21;93959.09;;;9.11;100.00
1832;BME280;1680;48.106;11.708;2023-03-14T03:59:48;93960.75;;;9.22;100.00
1832;BME280;1680;48.106;11.708;2023-03-14T04:02:15;93964.94;;;9.23;100.00
1832;BME280;1680;48.106;11.708;2023-03-14T04:04:42;93962.81;;;9.15;100.00
1832;BME280;1680;48.106;11.708;2023-03-14T04:07:10;93969.94;;;9.24;100.00
1832;BME280;1680;48.106;11.708;2023-03-14T04:09:39;93954.41;;;9.13;100.00
1832;BME280;1680;48.106;11.708;2023-03-14T04:12:08;93913.41;;;8.82;100.00
1832;BME280;1680;48.106;11.708;2023-03-14T04:14:36;93953.00;;;9.00;100.00
1832;BME280;1680;48.106;11.708;2023-03-14T04:17:03;93955.34;;;8.97;100.00
1832;BME280;1680;48.106;11.708;2023-03-14T04:19:31;93947.72;;;8.90;100.00
1832;BME280;1680;48.106;11.708;2023-03-14T04:21:58;93944.91;;;8.97;100.00
1832;BME280;1680;48.106;11.708;2023-03-14T04:24:25;93938.56;;;8.93;100.00
1832;BME280;1680;48.106;11.708;2023-03-14T04:26:52;93933.44;;;9.03;100.00
1832;BME280;1680;48.106;11.708;2023-03-14T04:29:21;93923.41;;;8.90;100.00
1832;BME280;1680;48.106;11.708;2023-03-14T04:31:48;93924.53;;;8.99;100.00
1832;BME280;1680;48.106;11.708;2023-03-14T04:34:16;93909.59;;;8.99;100.00
1832;BME280;1680;48.106;11.708;2023-03-14T04:36:43;93902.53;;;8.95;100.00
1832;BME280;1680;48.106;11.708;2023-03-14T04:39:10;93897.59;;;8.98;100.00
1832;BME280;1680;48.106;11.708;2023-03-14T04:41:37;93894.44;;;8.96;100.00
1832;BME280;1680;48.106;11.708;2023-03-14T04:44:04;93896.97;;;8.86;100.00
1832;BME280;1680;48.106;11.708;2023-03-14T04:46:33;93896.97;;;8.86;100.00
1832;BME280;1680;48.106;11.708;2023-03-14T04:49:00;93904.53;;;8.83;100.00
1832;BME280;1680;48.106;11.708;2023-03-14T04:51:27;93904.88;;;8.91;100.00
1832;BME280;1680;48.106;11.708;2023-03-14T04:53:55;93914.00;;;8.89;100.00
1832;BME280;1680;48.106;11.708;2023-03-14T04:56:22;93906.41;;;8.87;100.00
1832;BME280;1680;48.106;11.708;2023-03-14T04:58:49;93875.00;;;8.46;100.00
1832;BME280;1680;48.106;11.708;2023-03-14T05:01:16;93903.88;;;8.61;100.00
1832;BME280;1680;48.106;11.708;2023-03-14T05:03:45;93893.53;;;8.76;100.00
1832;BME280;1680;48.106;11.708;2023-03-14T05:06:12;93888.25;;;8.71;100.00
1832;BME280;1680;48.106;11.708;2023-03-14T05:08:40;93893.97;;;8.68;100.00
1832;BME280;1680;48.106;11.708;2023-03-14T05:11:10;93883.47;;;8.63;100.00
1832;BME280;1680;48.106;11.708;2023-03-14T05:13:38;93894.53;;;8.70;100.00
1832;BME280;1680;48.106;11.708;2023-03-14T05:16:06;93893.91;;;8.58;100.00
1832;BME280;1680;48.106;11.708;2023-03-14T05:18:34;93885.66;;;8.71;100.00
1832;BME280;1680;48.106;11.708;2023-03-14T05:21:04;93878.84;;;8.70;100.00
1832;BME280;1680;48.106;11.708;2023-03-14T05:23:31;93875.91;;;8.62;100.00
1832;BME280;1680;48.106;11.708;2023-03-14T05:25:58;93871.78;;;8.70;100.00
1832;BME280;1680;48.106;11.708;2023-03-14T05:28:26;93870.88;;;8.91;100.00
1832;BME280;1680;48.106;11.708;2023-03-14T05:30:53;93867.13;;;8.77;100.00
1832;BME280;1680;48.106;11.708;2023-03-14T05:33:21;93870.50;;;8.73;100.00
1832;BME280;1680;48.106;11.708;2023-03-14T05:35:48;93881.94;;;8.67;100.00
1832;BME280;1680;48.106;11.708;2023-03-14T05:38:16;93882.31;;;8.85;100.00
1832;BME280;1680;48.106;11.708;2023-03-14T05:40:44;93884.13;;;8.80;100.00
1832;BME280;1680;48.106;11.708;2023-03-14T05:43:12;93884.66;;;8.82;100.00
1832;BME280;1680;48.106;11.708;2023-03-14T05:45:40;93877.41;;;8.89;100.00
1832;BME280;1680;48.106;11.708;2023-03-14T05:48:07;93880.03;;;8.89;100.00
1832;BME280;1680;48.106;11.708;2023-03-14T05:50:35;93878.13;;;8.79;100.00
1832;BME280;1680;48.106;11.708;2023-03-14T05:53:02;93877.31;;;8.79;100.00
1832;BME280;1680;48.106;11.708;2023-03-14T05:55:31;93875.84;;;8.88;100.00
1832;BME280;1680;48.106;11.708;2023-03-14T05:57:58;93870.56;;;8.83;100.00
1832;BME280;1680;48.106;11.708;2023-03-14T06:00:26;93873.44;;;8.86;100.00
1832;BME280;1680;48.106;11.708;2023-03-14T06:02:53;93863.16;;;8.70;100.00
1832;BME280;1680;48.106;11.708;2023-03-14T06:05:20;93867.84;;;8.68;100.00
1832;BME280;1680;48.106;11.708;2023-03-14T06:07:47;93865.84;;;8.80;100.00
1832;BME280;1680;48.106;11.708;2023-03-14T06:10:15;93870.81;;;8.81;100.00
1832;BME280;1680;48.106;11.708;2023-03-14T06:12:43;93862.16;;;8.76;100.00
1832;BME280;1680;48.106;11.708;2023-03-14T06:15:11;93873.97;;;8.83;100.00
1832;BME280;1680;48.106;11.708;2023-03-14T06:17:38;93863.72;;;8.77;100.00
1832;BME280;1680;48.106;11.708;2023-03-14T06:20:06;93863.97;;;8.75;100.00
1832;BME280;1680;48.106;11.708;2023-03-14T06:22:34;93868.44;;;8.80;100.00
1832;BME280;1680;48.106;11.708;2023-03-14T06:25:01;93865.84;;;8.80;100.00
1832;BME280;1680;48.106;11.708;2023-03-14T06:27:29;93873.72;;;8.85;100.00
1832;BME280;1680;48.106;11.708;2023-03-14T06:29:57;93869.47;;;8.74;100.00
1832;BME280;1680;48.106;11.708;2023-03-14T06:32:25;93858.00;;;8.80;100.00
1832;BME280;1680;48.106;11.708;2023-03-14T06:34:52;93850.97;;;8.85;100.00
1832;BME280;1680;48.106;11.708;2023-03-14T06:37:19;93842.41;;;8.90;100.00
1832;BME280;1680;48.106;11.708;2023-03-14T06:39:47;93834.56;;;8.90;100.00
1832;BME280;1680;48.106;11.708;2023-03-14T06:42:14;93831.72;;;8.96;100.00
1832;BME280;1680;48.106;11.708;2023-03-14T06:44:41;93793.78;;;8.89;100.00
1832;BME280;1680;48.106;11.708;2023-03-14T06:47:10;93819.50;;;9.12;100.00
1832;BME280;1680;48.106;11.708;2023-03-14T06:49:37;93823.22;;;9.21;100.00
1832;BME280;1680;48.106;11.708;2023-03-14T06:52:04;93840.22;;;9.23;100.00
1832;BME280;1680;48.106;11.708;2023-03-14T06:54:31;93849.13;;;9.32;100.00
1832;BME280;1680;48.106;11.708;2023-03-14T06:56:58;93846.56;;;9.42;100.00
1832;BME280;1680;48.106;11.708;2023-03-14T06:59:26;93852.09;;;9.56;100.00
1832;BME280;1680;48.106;11.708;2023-03-14T07:01:53;93858.88;;;9.52;100.00
1832;BME280;1680;48.106;11.708;2023-03-14T07:04:21;93861.72;;;9.45;100.00
1832;BME280;1680;48.106;11.708;2023-03-14T07:06:49;93859.88;;;9.41;100.00
1832;BME280;1680;48.106;11.708;2023-03-14T07:09:16;93858.31;;;9.40;100.00
1832;BME280;1680;48.106;11.708;2023-03-14T07:11:43;93852.53;;;9.38;100.00
1832;BME280;1680;48.106;11.708;2023-03-14T07:14:10;93852.25;;;9.29;100.00
1832;BME280;1680;48.106;11.708;2023-03-14T07:16:37;93853.31;;;9.33;100.00
1832;BME280;1680;48.106;11.708;2023-03-14T07:19:05;93846.78;;;9.31;100.00
1832;BME280;1680;48.106;11.708;2023-03-14T07:21:33;93851.75;;;9.32;100.00
1832;BME280;1680;48.106;11.708;2023-03-14T07:24:01;93850.97;;;9.32;100.00
1832;BME280;1680;48.106;11.708;2023-03-14T07:26:28;93851.47;;;9.29;100.00
1832;BME280;1680;48.106;11.708;2023-03-14T07:28:55;93869.78;;;9.29;100.00
1832;BME280;1680;48.106;11.708;2023-03-14T07:31:22;93866.66;;;9.32;100.00
1832;BME280;1680;48.106;11.708;2023-03-14T07:33:50;93864.34;;;9.40;100.00
1832;BME280;1680;48.106;11.708;2023-03-14T07:36:17;93853.59;;;9.37;100.00
1832;BME280;1680;48.106;11.708;2023-03-14T07:38:45;93851.53;;;9.44;100.00
1832;BME280;1680;48.106;11.708;2023-03-14T07:41:13;93858.91;;;9.57;100.00
1832;BME280;1680;48.106;11.708;2023-03-14T07:43:40;93852.59;;;9.53;100.00
1832;BME280;1680;48.106;11.708;2023-03-14T07:46:07;93859.50;;;9.83;100.00
1832;BME280;1680;48.106;11.708;2023-03-14T07:48:35;93847.44;;;9.72;100.00
1832;BME280;1680;48.106;11.708;2023-03-14T07:51:02;93856.88;;;9.73;100.00
1832;BME280;1680;48.106;11.708;2023-03-14T07:53:29;93843.78;;;9.73;100.00
1832;BME280;1680;48.106;11.708;2023-03-14T07:55:58;93847.41;;;9.67;100.00
1832;BME280;1680;48.106;11.708;2023-03-14T07:58:25;93835.66;;;9.65;100.00
1832;BME280;1680;48.106;11.708;2023-03-14T08:00:52;93839.13;;;9.95;100.00
1832;BME280;1680;48.106;11.708;2023-03-14T08:03:19;93848.59;;;10.06;100.00
1832;BME280;1680;48.106;11.708;2023-03-14T08:05:47;93842.56;;;10.06;100.00
1832;BME280;1680;48.106;11.708;2023-03-14T08:08:15;93840.25;;;10.29;100.00
1832;BME280;1680;48.106;11.708;2023-03-14T08:10:43;93839.72;;;10.37;100.00
1832;BME280;1680;48.106;11.708;2023-03-14T08:13:12;93843.91;;;10.33;100.00
1832;BME280;1680;48.106;11.708;2023-03-14T08:15:40;93846.03;;;10.26;100.00
1832;BME280;1680;48.106;11.708;2023-03-14T08:18:07;93845.72;;;10.08;100.00
1832;BME280;1680;48.106;11.708;2023-03-14T08:20:35;93856.75;;;10.25;100.00
1832;BME280;1680;48.106;11.708;2023-03-14T08:23:02;93840.00;;;10.41;100.00
1832;BME280;1680;48.106;11.708;2023-03-14T08:25:29;93850.19;;;10.42;100.00
1832;BME280;1680;48.106;11.708;2023-03-14T08:27:57;93848.13;;;10.49;100.00
1832;BME280;1680;48.106;11.708;2023-03-14T08:30:26;93853.09;;;10.51;100.00
1832;BME280;1680;48.106;11.708;2023-03-14T08:32:53;93853.91;;;10.56;99.13
1832;BME280;1680;48.106;11.708;2023-03-14T08:35:20;93860.16;;;10.65;100.00
1832;BME280;1680;48.106;11.708;2023-03-14T08:37:47;93860.69;;;10.52;100.00
1832;BME280;1680;48.106;11.708;2023-03-14T08:40:15;93846.03;;;10.51;100.00
1832;BME280;1680;48.106;11.708;2023-03-14T08:42:42;93866.97;;;10.66;100.00
1832;BME280;1680;48.106;11.708;2023-03-14T08:45:11;93848.63;;;10.61;98.35
1832;BME280;1680;48.106;11.708;2023-03-14T08:47:40;93880.09;;;10.71;97.94
1832;BME280;1680;48.106;11.708;2023-03-14T08:50:08;93886.38;;;10.65;99.40
1832;BME280;1680;48.106;11.708;2023-03-14T08:52:36;93881.66;;;10.57;100.00
1832;BME280;1680;48.106;11.708;2023-03-14T08:55:06;93889.00;;;10.70;99.07
1832;BME280;1680;48.106;11.708;2023-03-14T08:57:34;93896.59;;;10.66;98.37
1832;BME280;1680;48.106;11.708;2023-03-14T09:00:03;93860.69;;;10.47;98.88
1832;BME280;1680;48.106;11.708;2023-03-14T09:02:34;93891.09;;;10.73;99.69
1832;BME280;1680;48.106;11.708;2023-03-14T09:05:03;93891.63;;;10.75;100.00
1832;BME280;1680;48.106;11.708;2023-03-14T09:07:30;93895.31;;;10.69;100.00
1832;BME280;1680;48.106;11.708;2023-03-14T09:09:57;93895.81;;;10.76;99.01
1832;BME280;1680;48.106;11.708;2023-03-14T09:12:25;93904.22;;;10.78;98.04
1832;BME280;1680;48.106;11.708;2023-03-14T09:14:52;93900.53;;;10.84;97.95
1832;BME280;1680;48.106;11.708;2023-03-14T09:17:19;93896.59;;;10.71;100.00
1832;BME280;1680;48.106;11.708;2023-03-14T09:19:46;93894.78;;;10.82;99.27
1832;BME280;1680;48.106;11.708;2023-03-14T09:22:15;93901.84;;;10.86;98.25
1832;BME280;1680;48.106;11.708;2023-03-14T09:24:42;93895.28;;;10.99;97.94
1832;BME280;1680;48.106;11.708;2023-03-14T09:27:09;93907.34;;;11.00;98.71
1832;BME280;1680;48.106;11.708;2023-03-14T09:29:36;93895.25;;;11.09;95.70
1832;BME280;1680;48.106;11.708;2023-03-14T09:32:04;93899.47;;;11.05;96.31
1832;BME280;1680;48.106;11.708;2023-03-14T09:34:31;93907.09;;;11.06;98.00
1832;BME280;1680;48.106;11.708;2023-03-14T09:36:58;93894.22;;;11.05;98.23
1832;BME280;1680;48.106;11.708;2023-03-14T09:39:28;93894.47;;;10.98;99.01
1832;BME280;1680;48.106;11.708;2023-03-14T09:41:56;93890.03;;;10.99;99.25
1832;BME280;1680;48.106;11.708;2023-03-14T09:44:28;93860.94;;;10.70;100.00
1832;BME280;1680;48.106;11.708;2023-03-14T09:47:00;93880.34;;;10.79;100.00
1832;BME280;1680;48.106;11.708;2023-03-14T09:49:30;93879.56;;;10.79;100.00
1832;BME280;1680;48.106;11.708;2023-03-14T09:52:00;93869.59;;;10.76;100.00
1832;BME280;1680;48.106;11.708;2023-03-14T09:54:35;93866.19;;;10.80;100.00
1832;BME280;1680;48.106;11.708;2023-03-14T09:57:04;93872.47;;;10.89;100.00
1832;BME280;1680;48.106;11.708;2023-03-14T09:59:33;93850.19;;;10.72;100.00
1832;BME280;1680;48.106;11.708;2023-03-14T10:02:14;93861.72;;;10.96;100.00
1832;BME280;1680;48.106;11.708;2023-03-14T10:04:44;93860.41;;;10.83;100.00
1832;BME280;1680;48.106;11.708;2023-03-14T10:07:15;93861.97;;;10.99;100.00
1832;BME280;1680;48.106;11.708;2023-03-14T10:09:48;93858.00;;;11.07;100.00
1832;BME280;1680;48.106;11.708;2023-03-14T10:12:16;93858.50;;;11.19;100.00
1832;BME280;1680;48.106;11.708;2023-03-14T10:14:47;93835.69;;;11.19;100.00
1832;BME280;1680;48.106;11.708;2023-03-14T10:17:16;93850.63;;;11.29;95.67
1832;BME280;1680;48.106;11.708;2023-03-14T10:19:52;93853.78;;;11.31;95.77
1832;BME280;1680;48.106;11.708;2023-03-14T10:22:21;93859.50;;;11.38;94.62
1832;BME280;1680;48.106;11.708;2023-03-14T10:24:54;93854.25;;;11.38;96.16
1832;BME280;1680;48.106;11.708;2023-03-14T10:27:27;93850.03;;;11.57;90.00
1832;BME280;1680;48.106;11.708;2023-03-14T10:29:56;93803.13;;;11.30;89.96
1832;BME280;1680;48.106;11.708;2023-03-14T10:32:30;93851.47;;;11.87;87.76
1832;BME280;1680;48.106;11.708;2023-03-14T10:35:18;93837.75;;;11.95;88.33
1832;BME280;1680;48.106;11.708;2023-03-14T10:37:55;93842.44;;;12.03;88.54
1832;BME280;1680;48.106;11.708;2023-03-14T10:40:27;93840.81;;;12.07;89.20
1832;BME280;1680;48.106;11.708;2023-03-14T10:42:55;93850.69;;;12.30;90.33
1832;BME280;1680;48.106;11.708;2023-03-14T10:45:32;93858.38;;;12.55;87.79
1832;BME280;1680;48.106;11.708;2023-03-14T10:48:16;93833.09;;;12.59;86.86
1832;BME280;1680;48.106;11.708;2023-03-14T10:50:53;93840.78;;;12.84;87.38
1832;BME280;1680;48.106;11.708;2023-03-14T10:53:22;93821.25;;;12.95;82.74
1832;BME280;1680;48.106;11.708;2023-03-14T10:55:51;93852.53;;;13.25;80.58
1832;BME280;1680;48.106;11.708;2023-03-14T10:58:24;93844.00;;;13.33;81.97
1832;BME280;1680;48.106;11.708;2023-03-14T11:01:00;93845.91;;;13.27;78.64
1832;BME280;1680;48.106;11.708;2023-03-14T11:03:32;93847.34;;;13.15;81.86
1832;BME280;1680;48.106;11.708;2023-03-14T11:06:09;93831.19;;;12.98;81.16
1832;BME280;1680;48.106;11.708;2023-03-14T11:08:46;93855.72;;;12.93;82.18
1832;BME280;1680;48.106;11.708;2023-03-14T11:11:19;93858.91;;;12.52;81.41
1832;BME280;1680;48.106;11.708;2023-03-14T11:13:55;93856.06;;;12.49;81.97
1832;BME280;1680;48.106;11.708;2023-03-14T11:16:33;93846.81;;;12.51;81.10
1832;BME280;1680;48.106;11.708;2023-03-14T11:19:16;93848.91;;;12.54;82.56
1832;BME280;1680;48.106;11.708;2023-03-14T11:21:52;93858.97;;;12.47;80.55
1832;BME280;1680;48.106;11.708;2023-03-14T11:24:41;93854.78;;;12.46;81.76
1832;BME280;1680;48.106;11.708;2023-03-14T11:27:17;93856.53;;;12.56;81.60
1832;BME280;1680;48.106;11.708;2023-03-14T11:29:52;93849.50;;;12.79;78.48
1832;BME280;1680;48.106;11.708;2023-03-14T11:32:27;93845.63;;;12.72;79.90
1832;BME280;1680;48.106;11.708;2023-03-14T11:34:59;93849.94;;;12.91;78.56
1832;BME280;1680;48.106;11.708;2023-03-14T11:37:33;93842.53;;;12.98;78.39
1832;BME280;1680;48.106;11.708;2023-03-14T11:40:06;93826.91;;;13.07;77.31
1832;BME280;1680;48.106;11.708;2023-03-14T11:42:38;93831.00;;;13.18;76.08
1832;BME280;1680;48.106;11.708;2023-03-14T11:45:14;93830.91;;;13.28;76.54
1832;BME280;1680;48.106;11.708;2023-03-14T11:47:44;93819.38;;;13.24;73.37
1832;BME280;1680;48.106;11.708;2023-03-14T11:50:17;93816.22;;;13.22;70.81
1832;BME280;1680;48.106;11.708;2023-03-14T11:52:49;93816.00;;;13.18;67.63
1832;BME280;1680;48.106;11.708;2023-03-14T11:55:21;93802.59;;;13.15;67.83
1832;BME280;1680;48.106;11.708;2023-03-14T11:57:55;93803.91;;;13.17;67.86
1832;BME280;1680;48.106;11.708;2023-03-14T12:00:24;93823.34;;;13.21;67.96
1832;BME280;1680;48.106;11.708;2023-03-14T12:02:57;93805.16;;;13.25;65.82
1832;BME280;1680;48.106;11.708;2023-03-14T12:05:38;93798.66;;;13.17;65.56
1832;BME280;1680;48.106;11.708;2023-03-14T12:08:22;93783.63;;;13.18;65.87
1832;BME280;1680;48.106;11.708;2023-03-14T12:10:54;93807.16;;;13.33;65.81
1832;BME280;1680;48.106;11.708;2023-03-14T12:13:28;93803.13;;;13.40;67.49
1832;BME280;1680;48.106;11.708;2023-03-14T12:15:57;93797.28;;;13.66;66.83
1832;BME280;1680;48.106;11.708;2023-03-14T12:18:27;93798.50;;;13.74;65.29
1832;BME280;1680;48.106;11.708;2023-03-14T12:20:57;93803.81;;;13.69;63.60
1832;BME280;1680;48.106;11.708;2023-03-14T12:23:26;93810.34;;;13.71;63.19
1832;BME280;1680;48.106;11.708;2023-03-14T12:26:13;93804.00;;;13.54;65.64
1832;BME280;1680;48.106;11.708;2023-03-14T12:28:46;93805.53;;;13.78;64.75
1832;BME280;1680;48.106;11.708;2023-03-14T12:31:41;93802.25;;;13.86;63.96
1832;BME280;1680;48.106;11.708;2023-03-14T12:34:27;93795.88;;;13.92;62.91
1832;BME280;1680;48.106;11.708;2023-03-14T12:37:04;93810.25;;;13.81;65.00
1832;BME280;1680;48.106;11.708;2023-03-14T12:39:43;93810.75;;;13.83;65.82
1832;BME280;1680;48.106;11.708;2023-03-14T12:42:14;93819.00;;;13.77;67.76
1832;BME280;1680;48.106;11.708;2023-03-14T12:44:47;93779.91;;;13.65;65.07
1832;BME280;1680;48.106;11.708;2023-03-14T12:54:06;93809.28;;;13.31;65.71
1832;BME280;1680;48.106;11.708;2023-03-14T12:56:49;93813.94;;;13.39;64.57
1832;BME280;1680;48.106;11.708;2023-03-14T12:59:29;93798.75;;;13.07;65.55
1832;BME280;1680;48.106;11.708;2023-03-14T13:02:02;93801.38;;;13.31;65.67
1832;BME280;1680;48.106;11.708;2023-03-14T13:04:44;93815.44;;;13.45;65.01
1832;BME280;1680;48.106;11.708;2023-03-14T13:07:13;93815.94;;;13.47;64.60
1832;BME280;1680;48.106;11.708;2023-03-14T13:10:00;93818.75;;;13.55;63.41
1832;BME280;1680;48.106;11.708;2023-03-14T13:12:37;93828.34;;;13.46;64.60
1832;BME280;1680;48.106;11.708;2023-03-14T13:15:18;93839.03;;;13.31;63.94
1832;BME280;1680;48.106;11.708;2023-03-14T13:17:48;93823.97;;;13.13;64.83
1832;BME280;1680;48.106;11.708;2023-03-14T13:20:21;93818.13;;;12.93;64.93
1832;BME280;1680;48.106;11.708;2023-03-14T13:22:50;93820.22;;;12.91;65.43
1832;BME280;1680;48.106;11.708;2023-03-14T13:25:17;93846.41;;;13.06;66.72
1832;BME280;1680;48.106;11.708;2023-03-14T13:27:48;93853.78;;;13.32;65.15
1832;BME280;1680;48.106;11.708;2023-03-14T13:30:19;93819.53;;;13.32;63.97